createdAt,value
2019-06-26T00:02:59.194Z,101121.45
2019-06-26T00:08:05.681Z,101127.19
2019-06-26T00:13:25.178Z,101120.14
2019-06-26T00:18:19.465Z,101117.48
2019-06-26T00:23:25.534Z,101112.49
2019-06-26T00:28:31.612Z,101109.89
2019-06-26T00:33:37.694Z,101106.12
2019-06-26T00:38:43.896Z,101105.73
2019-06-26T00:43:49.929Z,101104.15
2019-06-26T00:48:55.901Z,101098.97
2019-06-26T00:54:03.411Z,101092.47
2019-06-26T00:59:09.384Z,101098.17
2019-06-26T01:04:19.752Z,101092.91
2019-06-26T01:09:25.724Z,101081.63
2019-06-26T01:14:31.899Z,101083.98
2019-06-26T01:19:37.871Z,101072.77
2019-06-26T01:24:43.935Z,101073.66
2019-06-26T01:29:49.910Z,101076.59
2019-06-26T01:34:55.883Z,101069.36
2019-06-26T01:40:01.857Z,101067.52
2019-06-26T01:45:10.118Z,101061.39
2019-06-26T01:50:16.667Z,101062.70
2019-06-26T01:55:23.037Z,101059.31
2019-06-26T02:00:28.911Z,101053.25
2019-06-26T02:05:34.995Z,101052.80
2019-06-26T02:10:41.058Z,101050.09
2019-06-26T02:15:48.156Z,101050.88
2019-06-26T02:20:54.235Z,101052.53
2019-06-26T02:26:00.336Z,101057.98
2019-06-26T02:31:06.687Z,101057.14
2019-06-26T02:36:12.720Z,101052.80
2019-06-26T02:41:18.879Z,101042.81
2019-06-26T02:46:25.010Z,101050.65
2019-06-26T02:51:32.031Z,101049.62
2019-06-26T02:56:38.011Z,101042.02
2019-06-26T03:01:44.567Z,101037.39
2019-06-26T03:06:50.627Z,101036.38
2019-06-26T03:11:56.702Z,101032.25
2019-06-26T03:17:02.672Z,101031.78
2019-06-26T03:22:08.949Z,101033.17
2019-06-26T03:27:14.933Z,101032.84
2019-06-26T03:32:21.004Z,101035.08
2019-06-26T03:37:27.785Z,101033.03
2019-06-26T03:42:33.876Z,101032.38
2019-06-26T03:47:39.834Z,101028.10
2019-06-26T03:52:45.827Z,101034.25
2019-06-26T03:57:52.279Z,101029.27
2019-06-26T04:02:58.460Z,101029.70
2019-06-26T04:08:05.144Z,101024.01
2019-06-26T04:13:11.115Z,101021.69
2019-06-26T04:18:17.189Z,101023.16
2019-06-26T04:23:23.226Z,101028.40
2019-06-26T04:28:29.355Z,101028.64
2019-06-26T04:33:35.924Z,101021.36
2019-06-26T04:38:42.018Z,101028.36
2019-06-26T04:43:48.311Z,101022.31
2019-06-26T04:48:54.451Z,101026.72
2019-06-26T04:54:00.525Z,101019.48
2019-06-26T04:59:08.268Z,101011.78
2019-06-26T05:04:14.507Z,101014.28
2019-06-26T05:09:20.569Z,101017.94
2019-06-26T05:14:27.276Z,101012.05
2019-06-26T05:19:33.455Z,101002.08
2019-06-26T05:24:40.405Z,101006.83
2019-06-26T05:29:46.750Z,101006.86
2019-06-26T05:34:52.911Z,101009.84
2019-06-26T05:39:59.607Z,101005.73
2019-06-26T05:45:07.060Z,100997.66
2019-06-26T05:50:14.493Z,100998.06
2019-06-26T05:55:21.289Z,101002.20
2019-06-26T06:00:29.533Z,100997.80
2019-06-26T06:05:35.583Z,101001.95
2019-06-26T06:10:42.280Z,101005.38
2019-06-26T06:15:48.351Z,101002.26
2019-06-26T06:20:54.455Z,100998.73
2019-06-26T06:26:00.710Z,100994.70
2019-06-26T06:31:06.873Z,100993.47
2019-06-26T06:36:13.154Z,100994.25
2019-06-26T06:41:19.213Z,100992.23
2019-06-26T06:46:25.503Z,100985.61
2019-06-26T06:51:31.685Z,100986.72
2019-06-26T06:56:38.058Z,100978.30
2019-06-26T07:01:44.442Z,100983.40
2019-06-26T07:06:50.740Z,100983.47
2019-06-26T07:11:56.888Z,100976.73
2019-06-26T07:17:16.088Z,100976.97
2019-06-26T07:22:11.294Z,100969.64
2019-06-26T07:27:17.458Z,100969.52
2019-06-26T07:32:23.639Z,100973.12
2019-06-26T07:37:30.229Z,100968.64
2019-06-26T07:42:36.638Z,100961.42
2019-06-26T07:47:44.322Z,100960.15
2019-06-26T07:52:51.922Z,100964.86
2019-06-26T07:57:58.293Z,100961.41
2019-06-26T08:03:05.843Z,100962.03
2019-06-26T08:08:14.665Z,100955.92
2019-06-26T08:13:21.131Z,100958.94
2019-06-26T08:18:27.304Z,100954.55
2019-06-26T08:23:33.378Z,100954.04
2019-06-26T08:28:39.859Z,100953.75
2019-06-26T08:33:45.989Z,100953.23
2019-06-26T08:38:52.005Z,100948.01
2019-06-26T08:43:58.156Z,100947.48
2019-06-26T08:49:04.365Z,100940.77
2019-06-26T08:54:10.325Z,100943.44
2019-06-26T08:59:16.403Z,100931.87
2019-06-26T09:04:22.991Z,100937.00
2019-06-26T09:09:28.957Z,100924.19
2019-06-26T09:14:35.231Z,100925.55
2019-06-26T09:19:41.453Z,100922.78
2019-06-26T09:24:47.586Z,100923.97
2019-06-26T09:29:53.662Z,100917.86
2019-06-26T09:34:59.631Z,100909.66
2019-06-26T09:40:08.269Z,100905.42
2019-06-26T09:45:14.644Z,100901.70
2019-06-26T09:50:21.157Z,100899.40
2019-06-26T09:55:27.195Z,100893.02
2019-06-26T10:00:33.489Z,100896.44
2019-06-26T10:05:40.008Z,100888.63
2019-06-26T10:10:46.236Z,100883.83
2019-06-26T10:15:52.310Z,100797.20
2019-06-26T10:20:58.378Z,100878.09
2019-06-26T10:26:04.585Z,100870.48
2019-06-26T10:31:10.736Z,100861.23
2019-06-26T10:36:16.811Z,100848.94
2019-06-26T10:41:22.886Z,100843.06
2019-06-26T10:46:29.563Z,100837.19
2019-06-26T10:51:35.639Z,100828.05
2019-06-26T10:56:41.616Z,100831.11
2019-06-26T11:01:47.689Z,100821.83
2019-06-26T11:06:53.964Z,100820.41
2019-06-26T11:12:00.100Z,100813.95
2019-06-26T11:17:06.522Z,100807.57
2019-06-26T11:22:12.599Z,100796.98
2019-06-26T11:27:18.564Z,100790.06
2019-06-26T11:32:24.534Z,100772.53
2019-06-26T11:37:30.994Z,100769.81
2019-06-26T11:42:37.094Z,100764.86
2019-06-26T11:47:45.785Z,100758.48
2019-06-26T11:52:50.874Z,100750.56
2019-06-26T11:57:56.846Z,100745.23
2019-06-26T12:03:02.926Z,100739.13
2019-06-26T12:08:09.236Z,100736.32
2019-06-26T12:13:15.502Z,100725.16
2019-06-26T12:18:21.557Z,100719.48
2019-06-26T12:23:27.615Z,100713.66
2019-06-26T12:28:33.798Z,100704.13
2019-06-26T12:33:39.907Z,100702.05
2019-06-26T12:38:45.848Z,100695.52
2019-06-26T12:43:51.818Z,100681.08
2019-06-26T12:48:57.895Z,100675.54
2019-06-26T12:54:04.067Z,100667.06
2019-06-26T12:59:10.228Z,100665.64
2019-06-26T13:04:16.311Z,100664.84
2019-06-26T13:09:22.714Z,100654.34
2019-06-26T13:14:28.717Z,100637.80
2019-06-26T13:19:34.728Z,100630.70
2019-06-26T13:24:43.988Z,100622.09
2019-06-26T13:29:48.516Z,100615.48
2019-06-26T13:34:54.481Z,100610.45
2019-06-26T13:40:00.564Z,100603.37
2019-06-26T13:45:08.375Z,100600.53
2019-06-26T13:50:15.182Z,100584.46
2019-06-26T13:55:21.349Z,100572.77
2019-06-26T14:00:28.021Z,100570.00
2019-06-26T14:05:34.406Z,100569.19
2019-06-26T14:10:40.580Z,100556.62
2019-06-26T14:15:46.660Z,100555.66
2019-06-26T14:20:52.823Z,100547.47
2019-06-26T14:25:58.899Z,100536.45
2019-06-26T14:31:05.086Z,100521.51
2019-06-26T14:36:12.236Z,100510.50
2019-06-26T14:41:18.556Z,100509.44
2019-06-26T14:46:24.635Z,100503.72
2019-06-26T14:51:42.328Z,100493.81
2019-06-26T14:56:38.419Z,100499.62
2019-06-26T15:01:44.500Z,100487.13
2019-06-26T15:06:50.724Z,100474.80
2019-06-26T15:11:56.834Z,100470.30
2019-06-26T15:17:02.809Z,100464.11
2019-06-26T15:22:08.874Z,100442.73
2019-06-26T15:27:15.063Z,100440.20
2019-06-26T15:32:21.276Z,100434.38
2019-06-26T15:37:27.273Z,100425.30
2019-06-26T15:42:33.263Z,100417.45
2019-06-26T15:47:40.777Z,100413.56
2019-06-26T15:52:46.742Z,100408.72
2019-06-26T15:57:52.621Z,100411.45
2019-06-26T16:02:58.694Z,100401.80
2019-06-26T16:08:04.967Z,100397.92
2019-06-26T16:13:11.350Z,100382.81
2019-06-26T16:18:22.026Z,100388.92
2019-06-26T16:23:29.328Z,100384.73
2019-06-26T16:28:35.708Z,100379.09
2019-06-26T16:33:42.193Z,100376.41
2019-06-26T16:38:48.264Z,100392.24
2019-06-26T16:43:54.359Z,100388.06
2019-06-26T16:49:00.410Z,100385.48
2019-06-26T16:54:06.381Z,100392.61
2019-06-26T16:59:12.253Z,100390.56
2019-06-26T17:04:18.321Z,100397.94
2019-06-26T17:09:24.396Z,100400.01
2019-06-26T17:14:30.898Z,100389.77
2019-06-26T17:19:37.162Z,100399.19
2019-06-26T17:24:43.417Z,100403.20
2019-06-26T17:29:49.401Z,100397.69
2019-06-26T17:34:55.388Z,100387.13
2019-06-26T17:40:01.450Z,100384.59
2019-06-26T17:45:08.573Z,100386.70
2019-06-26T17:50:15.681Z,100379.14
2019-06-26T17:55:21.633Z,100373.70
2019-06-26T18:00:32.195Z,100372.27
2019-06-26T18:05:38.178Z,100379.79
2019-06-26T18:10:44.203Z,100373.66
2019-06-26T18:15:50.514Z,100263.30
2019-06-26T18:20:56.592Z,100356.66
2019-06-26T18:26:12.454Z,100357.83
2019-06-26T18:31:10.367Z,100358.20
2019-06-26T18:36:16.444Z,100350.05
2019-06-26T18:41:22.430Z,100353.43
2019-06-26T18:46:28.706Z,100355.31
2019-06-26T18:51:34.775Z,100354.27
2019-06-26T18:56:40.839Z,100357.22
2019-06-26T19:01:46.938Z,100353.03
2019-06-26T19:06:53.095Z,100349.63
2019-06-26T19:11:59.164Z,100335.60
2019-06-26T19:17:06.466Z,100331.84
2019-06-26T19:22:12.535Z,100336.84
2019-06-26T19:27:18.508Z,100342.47
2019-06-26T19:32:24.859Z,100362.60
2019-06-26T19:37:30.891Z,100379.58
2019-06-26T19:42:37.197Z,100383.14
2019-06-26T19:47:43.308Z,100395.77
2019-06-26T19:52:49.489Z,100395.81
2019-06-26T19:57:55.454Z,100414.97
2019-06-26T20:03:01.333Z,100421.77
2019-06-26T20:08:07.499Z,100418.70
2019-06-26T20:13:13.466Z,100415.02
2019-06-26T20:18:20.269Z,100420.37
2019-06-26T20:23:26.334Z,100418.91
2019-06-26T20:28:33.247Z,100420.73
2019-06-26T20:33:39.193Z,100426.20
2019-06-26T20:38:45.157Z,100441.33
2019-06-26T20:43:51.031Z,100440.38
2019-06-26T20:48:56.904Z,100447.69
2019-06-26T20:54:02.885Z,100454.75
2019-06-26T20:59:09.154Z,100464.89
2019-06-26T21:04:15.226Z,100462.30
2019-06-26T21:09:21.140Z,100476.55
2019-06-26T21:14:27.055Z,100478.96
2019-06-26T21:19:33.349Z,100475.31
2019-06-26T21:24:39.433Z,100462.49
2019-06-26T21:29:45.487Z,100469.72
2019-06-26T21:34:51.312Z,100466.45
2019-06-26T21:39:57.327Z,100469.30
2019-06-26T21:45:03.396Z,100481.02
2019-06-26T21:50:09.865Z,100475.91
2019-06-26T21:55:15.850Z,100468.84
2019-06-26T22:00:39.742Z,100488.11
2019-06-26T22:06:03.529Z,100486.51
2019-06-26T22:11:11.035Z,100487.69
2019-06-26T22:16:17.118Z,100486.14
2019-06-26T22:21:23.802Z,100476.13
2019-06-26T22:26:30.077Z,100473.99
2019-06-26T22:31:36.456Z,100473.55
2019-06-26T22:36:51.233Z,100458.70
2019-06-26T22:41:51.335Z,100462.52
2019-06-26T22:46:57.335Z,100460.47
2019-06-26T22:52:03.410Z,100469.28
2019-06-26T22:57:11.125Z,100465.00
2019-06-26T23:02:17.193Z,100465.20
2019-06-26T23:07:23.167Z,100463.77
2019-06-26T23:12:29.040Z,100466.94
2019-06-26T23:17:35.005Z,100465.13
2019-06-26T23:22:41.492Z,100469.03
2019-06-26T23:27:47.561Z,100464.58
2019-06-26T23:32:53.524Z,100465.07
2019-06-26T23:37:59.495Z,100474.61
2019-06-26T23:43:05.699Z,100460.64
2019-06-26T23:48:11.648Z,100460.41
2019-06-26T23:53:17.630Z,100467.69
2019-06-26T23:58:23.692Z,100458.58
